createdAt,value
2018-07-14T00:01:25.363Z,99.90
2018-07-14T00:03:53.965Z,99.90
2018-07-14T00:08:51.715Z,99.90
2018-07-14T00:11:20.389Z,99.90
2018-07-14T00:13:49.067Z,99.90
2018-07-14T00:16:17.749Z,99.90
2018-07-14T00:18:46.397Z,99.90
2018-07-14T00:21:14.986Z,99.90
2018-07-14T00:23:43.600Z,99.90
2018-07-14T00:28:41.372Z,99.90
2018-07-14T00:31:10.005Z,99.90
2018-07-14T00:33:38.628Z,99.90
2018-07-14T00:36:07.260Z,99.90
2018-07-14T00:38:35.984Z,99.90
2018-07-14T00:41:04.680Z,99.90
2018-07-14T00:43:33.513Z,99.90
2018-07-14T00:46:02.264Z,99.90
2018-07-14T00:48:30.902Z,99.90
2018-07-14T00:50:59.543Z,99.90
2018-07-14T00:53:28.203Z,99.90
2018-07-14T00:55:56.828Z,99.90
2018-07-14T00:58:25.429Z,99.90
2018-07-14T01:00:54.105Z,99.90
2018-07-14T01:03:22.770Z,99.90
2018-07-14T01:05:51.463Z,99.90
2018-07-14T01:08:20.102Z,99.90
2018-07-14T01:10:48.721Z,99.90
2018-07-14T01:13:17.359Z,99.90
2018-07-14T01:15:45.974Z,99.90
2018-07-14T01:18:14.624Z,99.90
2018-07-14T01:20:43.304Z,99.90
2018-07-14T01:23:12.659Z,99.90
2018-07-14T01:25:41.699Z,99.90
2018-07-14T01:28:10.344Z,99.90
2018-07-14T01:30:39.004Z,99.90
2018-07-14T01:33:07.821Z,99.90
2018-07-14T01:35:36.493Z,99.90
2018-07-14T01:38:05.142Z,99.90
2018-07-14T01:40:33.909Z,99.90
2018-07-14T01:43:02.588Z,99.90
2018-07-14T01:45:31.265Z,99.90
2018-07-14T01:47:59.918Z,99.90
2018-07-14T01:50:28.601Z,99.90
2018-07-14T01:52:57.231Z,99.90
2018-07-14T01:55:25.890Z,99.90
2018-07-14T01:57:54.568Z,99.90
2018-07-14T02:00:23.208Z,99.90
2018-07-14T02:02:51.913Z,99.90
2018-07-14T02:05:20.651Z,99.90
2018-07-14T02:07:49.279Z,99.90
2018-07-14T02:10:17.936Z,99.90
2018-07-14T02:12:46.567Z,99.90
2018-07-14T02:15:15.260Z,99.90
2018-07-14T02:17:43.900Z,99.90
2018-07-14T02:20:12.561Z,99.90
2018-07-14T02:22:41.239Z,99.90
2018-07-14T02:25:09.957Z,99.90
2018-07-14T02:27:38.527Z,99.90
2018-07-14T02:30:07.162Z,99.90
2018-07-14T02:32:35.835Z,99.90
2018-07-14T02:35:04.446Z,99.90
2018-07-14T02:37:33.150Z,99.90
2018-07-14T02:40:01.753Z,99.90
2018-07-14T02:42:30.407Z,99.90
2018-07-14T02:44:59.100Z,99.90
2018-07-14T02:47:27.774Z,99.90
2018-07-14T02:49:56.411Z,99.90
2018-07-14T02:52:25.027Z,99.90
2018-07-14T02:54:53.663Z,99.90
2018-07-14T02:57:22.265Z,99.90
2018-07-14T02:59:50.907Z,99.90
2018-07-14T03:02:19.549Z,99.90
2018-07-14T03:04:48.203Z,99.90
2018-07-14T03:07:16.819Z,99.90
2018-07-14T03:09:45.452Z,99.90
2018-07-14T03:12:14.177Z,99.90
2018-07-14T03:14:42.972Z,99.90
2018-07-14T03:17:11.569Z,99.90
2018-07-14T03:19:40.224Z,99.90
2018-07-14T03:22:08.858Z,99.90
2018-07-14T03:24:37.517Z,99.90
2018-07-14T03:27:06.201Z,99.90
2018-07-14T03:29:34.900Z,99.90
2018-07-14T03:32:03.569Z,99.90
2018-07-14T03:34:32.186Z,99.90
2018-07-14T03:37:00.910Z,99.90
2018-07-14T03:39:29.574Z,99.90
2018-07-14T03:41:58.383Z,99.90
2018-07-14T03:44:26.983Z,99.90
2018-07-14T03:49:23.898Z,99.90
2018-07-14T03:51:52.550Z,99.90
2018-07-14T03:54:21.142Z,99.90
2018-07-14T03:56:49.784Z,99.90
2018-07-14T03:59:18.440Z,99.90
2018-07-14T04:01:47.136Z,99.90
2018-07-14T04:04:15.802Z,99.90
2018-07-14T04:09:12.732Z,99.90
2018-07-14T04:11:41.402Z,99.90
2018-07-14T04:14:10.025Z,99.90
2018-07-14T04:16:38.654Z,99.90
2018-07-14T04:19:07.295Z,99.90
2018-07-14T04:21:35.949Z,99.90
2018-07-14T04:24:04.577Z,99.90
2018-07-14T04:26:33.211Z,99.90
2018-07-14T04:29:01.941Z,99.90
2018-07-14T04:31:30.631Z,99.90
2018-07-14T04:33:59.330Z,99.90
2018-07-14T04:36:27.998Z,99.90
2018-07-14T04:38:56.636Z,99.90
2018-07-14T04:41:25.286Z,99.90
2018-07-14T04:43:54.232Z,99.90
2018-07-14T04:46:22.924Z,99.90
2018-07-14T04:48:51.556Z,99.90
2018-07-14T04:51:20.232Z,99.90
2018-07-14T04:53:48.878Z,99.90
2018-07-14T04:56:17.534Z,99.90
2018-07-14T04:58:46.168Z,99.90
2018-07-14T05:01:14.880Z,99.90
2018-07-14T05:03:43.543Z,99.90
2018-07-14T05:06:12.171Z,99.90
2018-07-14T05:08:40.803Z,99.90
2018-07-14T05:11:09.424Z,99.90
2018-07-14T05:13:38.050Z,99.90
2018-07-14T05:16:06.909Z,99.90
2018-07-14T05:18:35.611Z,99.90
2018-07-14T05:21:04.309Z,99.90
2018-07-14T05:23:32.961Z,99.90
2018-07-14T05:26:01.717Z,99.90
2018-07-14T05:28:30.409Z,99.90
2018-07-14T05:30:59.048Z,99.90
2018-07-14T05:33:27.668Z,99.90
2018-07-14T05:35:56.321Z,99.90
2018-07-14T05:38:25.001Z,99.90
2018-07-14T05:40:53.666Z,99.90
2018-07-14T05:43:22.314Z,99.90
2018-07-14T05:45:50.993Z,99.90
2018-07-14T05:48:19.668Z,99.90
2018-07-14T05:50:48.307Z,99.90
2018-07-14T05:53:16.970Z,99.90
2018-07-14T05:55:45.608Z,99.90
2018-07-14T05:58:14.244Z,99.90
2018-07-14T06:00:42.885Z,99.90
2018-07-14T06:03:11.560Z,99.90
2018-07-14T06:05:40.180Z,99.90
2018-07-14T06:08:08.975Z,99.90
2018-07-14T06:10:37.593Z,99.90
2018-07-14T06:15:34.587Z,99.90
2018-07-14T06:18:03.289Z,99.90
2018-07-14T06:20:31.991Z,99.90
2018-07-14T06:23:00.705Z,99.90
2018-07-14T06:27:57.653Z,99.90
2018-07-14T06:30:26.352Z,99.90
2018-07-14T06:35:23.698Z,99.90
2018-07-14T06:37:52.397Z,99.90
2018-07-14T06:40:21.093Z,99.90
2018-07-14T06:42:49.794Z,99.90
2018-07-14T06:45:18.480Z,99.90
2018-07-14T06:47:47.139Z,99.90
2018-07-14T06:50:15.811Z,99.90
2018-07-14T06:52:44.517Z,99.90
2018-07-14T06:55:13.231Z,99.90
2018-07-14T06:57:41.959Z,99.90
2018-07-14T07:00:10.631Z,99.90
2018-07-14T07:02:39.321Z,99.90
2018-07-14T07:05:07.999Z,99.90
2018-07-14T07:07:36.668Z,99.90
2018-07-14T07:10:05.477Z,99.90
2018-07-14T07:12:34.212Z,99.90
2018-07-14T07:15:02.852Z,99.90
2018-07-14T07:17:31.436Z,99.90
2018-07-14T07:20:00.121Z,99.90
2018-07-14T07:22:28.821Z,99.90
2018-07-14T07:24:57.515Z,99.90
2018-07-14T07:27:26.188Z,99.90
2018-07-14T07:29:54.838Z,99.90
2018-07-14T07:32:23.515Z,99.90
2018-07-14T07:37:20.451Z,99.90
2018-07-14T07:39:49.141Z,99.90
2018-07-14T07:42:17.796Z,99.90
2018-07-14T07:44:46.425Z,99.90
2018-07-14T07:47:15.089Z,99.90
2018-07-14T07:49:43.801Z,99.90
2018-07-14T07:52:12.391Z,99.90
2018-07-14T07:54:41.049Z,99.90
2018-07-14T07:57:09.761Z,99.90
2018-07-14T07:59:38.385Z,99.90
2018-07-14T08:02:07.630Z,99.90
2018-07-14T08:04:36.312Z,99.90
2018-07-14T08:07:05.662Z,99.90
2018-07-14T08:09:34.290Z,99.90
2018-07-14T08:12:03.114Z,99.90
2018-07-14T08:14:31.785Z,99.90
2018-07-14T08:17:00.398Z,99.90
2018-07-14T08:19:29.136Z,99.90
2018-07-14T08:21:57.802Z,99.90
2018-07-14T08:24:26.455Z,99.90
2018-07-14T08:26:55.211Z,99.90
2018-07-14T08:29:23.891Z,99.30
2018-07-14T08:31:52.499Z,99.10
2018-07-14T08:34:21.176Z,99.20
2018-07-14T08:36:49.828Z,99.20
2018-07-14T08:39:18.430Z,99.30
2018-07-14T08:41:47.083Z,99.50
2018-07-14T08:44:15.811Z,98.90
2018-07-14T08:46:44.484Z,98.90
2018-07-14T08:49:13.136Z,98.70
2018-07-14T08:51:42.062Z,98.90
2018-07-14T08:54:10.760Z,98.60
2018-07-14T08:56:39.409Z,98.30
2018-07-14T08:59:08.055Z,98.70
2018-07-14T09:01:36.824Z,99.40
2018-07-14T09:04:05.574Z,98.30
2018-07-14T09:06:34.488Z,98.20
2018-07-14T09:09:03.229Z,98.30
2018-07-14T09:11:32.029Z,97.90
2018-07-14T09:14:00.747Z,97.80
2018-07-14T09:16:29.520Z,98.70
2018-07-14T09:18:58.092Z,97.70
2018-07-14T09:21:26.743Z,97.20
2018-07-14T09:23:55.487Z,97.20
2018-07-14T09:26:24.122Z,97.50
2018-07-14T09:28:52.808Z,97.20
2018-07-14T09:31:21.462Z,96.80
2018-07-14T09:33:50.252Z,96.70
2018-07-14T09:36:18.967Z,96.50
2018-07-14T09:38:47.709Z,96.60
2018-07-14T09:41:16.312Z,97.00
2018-07-14T09:43:45.025Z,97.20
2018-07-14T09:46:13.675Z,96.80
2018-07-14T09:48:42.332Z,96.70
2018-07-14T09:51:11.053Z,95.90
2018-07-14T09:53:39.785Z,95.80
2018-07-14T09:56:08.473Z,95.40
2018-07-14T09:58:37.135Z,95.50
2018-07-14T10:01:08.634Z,95.40
2018-07-14T10:03:38.132Z,95.60
2018-07-14T10:06:06.892Z,96.00
2018-07-14T10:08:35.646Z,96.30
2018-07-14T10:11:04.951Z,95.60
2018-07-14T10:13:33.620Z,95.20
2018-07-14T10:16:02.383Z,94.30
2018-07-14T10:18:31.155Z,95.00
2018-07-14T10:20:59.882Z,94.60
2018-07-14T10:23:28.634Z,93.90
2018-07-14T10:25:57.464Z,93.00
2018-07-14T10:28:26.030Z,93.50
2018-07-14T10:30:54.698Z,93.50
2018-07-14T10:33:23.324Z,93.70
2018-07-14T10:35:52.023Z,94.20
2018-07-14T10:38:20.683Z,93.60
2018-07-14T10:43:17.885Z,93.70
2018-07-14T10:45:46.556Z,93.20
2018-07-14T10:48:15.169Z,93.30
2018-07-14T10:50:43.899Z,92.80
2018-07-14T10:53:12.529Z,92.60
2018-07-14T10:55:41.176Z,92.60
2018-07-14T10:58:09.914Z,91.70
2018-07-14T11:03:07.324Z,91.20
2018-07-14T11:05:36.014Z,91.30
2018-07-14T11:08:04.764Z,91.00
2018-07-14T11:10:33.390Z,91.20
2018-07-14T11:13:02.135Z,91.60
2018-07-14T11:17:59.057Z,91.70
2018-07-14T11:20:27.727Z,92.20
2018-07-14T11:22:56.409Z,91.40
2018-07-14T11:25:25.092Z,91.70
2018-07-14T11:27:54.024Z,92.10
2018-07-14T11:30:22.766Z,91.60
2018-07-14T11:32:51.349Z,91.80
2018-07-14T11:35:20.024Z,90.70
2018-07-14T11:37:48.835Z,90.20
2018-07-14T11:40:17.559Z,90.20
2018-07-14T11:42:46.270Z,90.90
2018-07-14T11:45:14.872Z,90.50
2018-07-14T11:47:43.727Z,90.50
2018-07-14T11:50:12.842Z,90.10
2018-07-14T11:52:41.524Z,87.90
2018-07-14T11:55:10.283Z,89.50
2018-07-14T11:57:38.915Z,88.10
2018-07-14T12:00:07.613Z,88.70
2018-07-14T12:02:36.848Z,87.90
2018-07-14T12:05:05.651Z,88.70
2018-07-14T12:07:34.355Z,87.60
2018-07-14T12:10:03.111Z,86.40
2018-07-14T12:12:31.777Z,87.10
2018-07-14T12:15:00.555Z,86.00
2018-07-14T12:17:29.258Z,85.90
2018-07-14T12:19:57.934Z,85.30
2018-07-14T12:22:26.709Z,85.70
2018-07-14T12:24:56.320Z,85.10
2018-07-14T12:27:24.977Z,84.70
2018-07-14T12:29:53.671Z,83.50
2018-07-14T12:32:22.430Z,84.50
2018-07-14T12:34:52.102Z,83.80
2018-07-14T12:37:20.801Z,82.80
2018-07-14T12:39:49.414Z,83.10
2018-07-14T12:42:18.032Z,83.80
2018-07-14T12:47:14.934Z,82.00
2018-07-14T12:49:43.578Z,81.10
2018-07-14T12:52:12.222Z,80.80
2018-07-14T12:54:40.847Z,81.30
2018-07-14T12:57:09.517Z,79.70
2018-07-14T12:59:38.209Z,78.70
2018-07-14T13:02:07.510Z,80.00
2018-07-14T13:04:36.262Z,81.30
2018-07-14T13:07:04.988Z,81.30
2018-07-14T13:09:33.685Z,81.10
2018-07-14T13:12:02.503Z,78.20
2018-07-14T13:14:31.689Z,79.40
2018-07-14T13:17:00.571Z,80.90
2018-07-14T13:19:29.256Z,79.60
2018-07-14T13:21:58.015Z,79.00
2018-07-14T13:24:26.741Z,77.60
2018-07-14T13:26:55.461Z,77.50
2018-07-14T13:29:24.159Z,78.40
2018-07-14T13:31:52.871Z,78.20
2018-07-14T13:34:21.512Z,77.20
2018-07-14T13:36:50.215Z,78.60
2018-07-14T13:39:18.954Z,76.80
2018-07-14T13:41:47.675Z,76.40
2018-07-14T13:44:16.346Z,76.10
2018-07-14T13:46:45.122Z,77.60
2018-07-14T13:49:14.094Z,77.10
2018-07-14T13:51:42.751Z,77.10
2018-07-14T13:54:11.481Z,77.20
2018-07-14T13:56:40.097Z,75.50
2018-07-14T13:59:08.748Z,76.40
2018-07-14T14:01:37.452Z,75.40
2018-07-14T14:04:06.160Z,73.40
2018-07-14T14:06:34.875Z,76.40
2018-07-14T14:09:04.311Z,76.00
2018-07-14T14:11:33.109Z,74.80
2018-07-14T14:14:01.733Z,75.30
2018-07-14T14:16:30.431Z,74.50
2018-07-14T14:18:59.139Z,76.00
2018-07-14T14:21:28.243Z,75.10
2018-07-14T14:23:56.864Z,75.90
2018-07-14T14:26:25.521Z,75.20
2018-07-14T14:28:54.239Z,75.40
2018-07-14T14:31:22.924Z,75.00
2018-07-14T14:33:51.614Z,76.30
2018-07-14T14:36:20.650Z,76.10
2018-07-14T14:38:49.344Z,75.90
2018-07-14T14:41:18.010Z,77.20
2018-07-14T14:43:46.706Z,76.90
2018-07-14T14:46:15.364Z,77.10
2018-07-14T14:48:44.005Z,76.30
2018-07-14T14:51:12.795Z,76.20
2018-07-14T14:53:41.495Z,76.30
2018-07-14T14:56:10.473Z,76.20
2018-07-14T14:58:39.033Z,75.50
2018-07-14T15:01:07.807Z,75.50
2018-07-14T15:03:36.505Z,75.50
2018-07-14T15:06:05.355Z,75.60
2018-07-14T15:08:34.071Z,74.50
2018-07-14T15:11:02.750Z,75.10
2018-07-14T15:13:31.447Z,74.50
2018-07-14T15:16:00.125Z,74.40
2018-07-14T15:18:28.878Z,74.70
2018-07-14T15:20:57.654Z,73.60
2018-07-14T15:23:26.353Z,73.80
2018-07-14T15:25:55.188Z,74.10
2018-07-14T15:28:23.808Z,75.30
2018-07-14T15:30:52.590Z,75.00
2018-07-14T15:33:21.312Z,74.90
2018-07-14T15:35:50.132Z,74.70
2018-07-14T15:38:18.874Z,75.80
2018-07-14T15:40:47.591Z,74.60
2018-07-14T15:43:16.477Z,75.30
2018-07-14T15:45:45.618Z,74.30
2018-07-14T15:48:14.344Z,74.70
2018-07-14T15:50:43.141Z,73.20
2018-07-14T15:53:11.917Z,73.20
2018-07-14T15:55:40.797Z,72.80
2018-07-14T15:58:10.149Z,70.80
2018-07-14T16:00:38.967Z,71.60
2018-07-14T16:03:07.822Z,70.70
2018-07-14T16:05:36.641Z,70.50
2018-07-14T16:08:05.462Z,72.10
2018-07-14T16:10:34.282Z,72.20
2018-07-14T16:13:03.091Z,73.80
2018-07-14T16:15:31.945Z,73.00
2018-07-14T16:18:00.726Z,75.10
2018-07-14T16:20:29.450Z,74.70
2018-07-14T16:22:58.152Z,74.60
2018-07-14T16:25:26.909Z,75.40
2018-07-14T16:27:55.685Z,75.50
2018-07-14T16:30:24.415Z,75.90
2018-07-14T16:32:53.209Z,76.10
2018-07-14T16:35:21.977Z,75.90
2018-07-14T16:37:50.723Z,76.80
2018-07-14T16:40:19.443Z,76.30
2018-07-14T16:42:48.302Z,76.40
2018-07-14T16:47:45.356Z,76.90
2018-07-14T16:50:14.104Z,76.90
2018-07-14T16:52:42.858Z,77.00
2018-07-14T16:55:11.592Z,77.10
2018-07-14T16:57:40.404Z,77.10
2018-07-14T17:00:09.259Z,77.50
2018-07-14T17:02:38.085Z,77.70
2018-07-14T17:05:06.839Z,77.40
2018-07-14T17:07:35.566Z,77.80
2018-07-14T17:10:04.360Z,77.60
2018-07-14T17:12:33.067Z,77.60
2018-07-14T17:15:01.748Z,78.00
2018-07-14T17:17:30.462Z,77.40
2018-07-14T17:22:27.500Z,77.50
2018-07-14T17:24:56.287Z,78.40
2018-07-14T17:27:24.999Z,77.90
2018-07-14T17:29:53.701Z,77.40
2018-07-14T17:32:22.626Z,77.20
2018-07-14T17:34:51.950Z,77.60
2018-07-14T17:37:20.673Z,77.90
2018-07-14T17:39:50.342Z,76.70
2018-07-14T17:42:19.112Z,77.20
2018-07-14T17:44:47.807Z,77.40
2018-07-14T17:47:16.530Z,77.60
2018-07-14T17:49:45.286Z,78.10
2018-07-14T17:52:13.991Z,77.70
2018-07-14T17:54:42.715Z,76.90
2018-07-14T17:57:11.389Z,77.70
2018-07-14T17:59:40.140Z,77.40
2018-07-14T18:02:08.969Z,78.10
2018-07-14T18:04:37.723Z,78.20
2018-07-14T18:07:06.470Z,77.80
2018-07-14T18:09:35.161Z,78.20
2018-07-14T18:12:03.948Z,78.20
2018-07-14T18:14:32.652Z,78.50
2018-07-14T18:17:01.377Z,78.90
2018-07-14T18:19:30.124Z,78.60
2018-07-14T18:21:58.816Z,78.30
2018-07-14T18:24:27.601Z,78.10
2018-07-14T18:26:56.285Z,78.00
2018-07-14T18:29:25.017Z,78.30
2018-07-14T18:31:53.752Z,78.30
2018-07-14T18:34:22.423Z,78.50
2018-07-14T18:36:51.145Z,78.30
2018-07-14T18:39:19.849Z,78.80
2018-07-14T18:41:48.549Z,78.60
2018-07-14T18:44:17.167Z,78.60
2018-07-14T18:46:45.901Z,79.10
2018-07-14T18:49:14.595Z,79.00
2018-07-14T18:51:43.300Z,79.40
2018-07-14T18:54:11.982Z,79.30
2018-07-14T18:56:40.705Z,79.50
2018-07-14T18:59:09.408Z,80.90
2018-07-14T19:01:38.280Z,80.60
2018-07-14T19:04:07.271Z,80.40
2018-07-14T19:06:35.967Z,81.30
2018-07-14T19:09:05.307Z,81.50
2018-07-14T19:11:33.951Z,81.60
2018-07-14T19:14:02.701Z,82.00
2018-07-14T19:16:31.399Z,82.10
2018-07-14T19:19:00.108Z,82.60
2018-07-14T19:21:28.807Z,83.00
2018-07-14T19:23:57.521Z,83.30
2018-07-14T19:26:26.206Z,83.80
2018-07-14T19:28:54.915Z,84.30
2018-07-14T19:31:23.608Z,84.10
2018-07-14T19:33:52.288Z,84.60
2018-07-14T19:36:20.985Z,85.60
2018-07-14T19:38:49.712Z,85.40
2018-07-14T19:41:18.435Z,85.50
2018-07-14T19:43:47.169Z,85.70
2018-07-14T19:46:15.838Z,86.30
2018-07-14T19:48:44.580Z,86.90
2018-07-14T19:51:13.842Z,86.60
2018-07-14T19:53:42.508Z,86.70
2018-07-14T19:56:11.300Z,87.10
2018-07-14T19:58:39.972Z,87.10
2018-07-14T20:01:08.615Z,87.50
2018-07-14T20:03:37.272Z,87.70
2018-07-14T20:06:06.012Z,87.70
2018-07-14T20:08:34.774Z,88.30
2018-07-14T20:11:04.395Z,88.70
2018-07-14T20:13:33.070Z,88.50
2018-07-14T20:16:01.723Z,88.80
2018-07-14T20:18:30.545Z,89.40
2018-07-14T20:20:59.229Z,89.40
2018-07-14T20:23:27.881Z,89.70
2018-07-14T20:25:56.598Z,89.60
2018-07-14T20:28:25.261Z,90.00
2018-07-14T20:30:53.952Z,90.10
2018-07-14T20:33:22.602Z,90.20
2018-07-14T20:35:51.376Z,90.30
2018-07-14T20:38:20.023Z,90.30
2018-07-14T20:40:48.728Z,90.50
2018-07-14T20:43:17.380Z,90.40
2018-07-14T20:45:46.145Z,90.60
2018-07-14T20:48:14.828Z,90.80
2018-07-14T20:50:43.493Z,90.70
2018-07-14T20:53:12.179Z,90.80
2018-07-14T20:55:40.855Z,91.00
2018-07-14T20:58:09.535Z,91.00
2018-07-14T21:00:38.207Z,91.20
2018-07-14T21:03:06.855Z,91.30
2018-07-14T21:05:35.527Z,91.30
2018-07-14T21:08:04.289Z,91.60
2018-07-14T21:10:32.913Z,91.70
2018-07-14T21:13:01.917Z,91.80
2018-07-14T21:15:30.623Z,92.00
2018-07-14T21:17:59.300Z,92.30
2018-07-14T21:20:27.988Z,92.30
2018-07-14T21:22:56.700Z,92.50
2018-07-14T21:25:25.366Z,92.70
2018-07-14T21:27:54.042Z,92.80
2018-07-14T21:30:22.654Z,93.00
2018-07-14T21:32:51.355Z,93.10
2018-07-14T21:35:20.095Z,93.20
2018-07-14T21:37:48.737Z,93.40
2018-07-14T21:40:17.544Z,93.50
2018-07-14T21:42:46.204Z,93.70
2018-07-14T21:45:14.901Z,93.90
2018-07-14T21:47:43.678Z,94.00
2018-07-14T21:50:12.485Z,94.20
2018-07-14T21:52:41.193Z,94.50
2018-07-14T21:55:09.893Z,94.70
2018-07-14T21:57:38.571Z,94.90
2018-07-14T22:00:07.618Z,95.30
2018-07-14T22:02:36.312Z,95.50
2018-07-14T22:05:05.053Z,95.60
2018-07-14T22:07:33.759Z,95.90
2018-07-14T22:10:02.421Z,96.00
2018-07-14T22:12:31.092Z,96.20
2018-07-14T22:14:59.868Z,96.20
2018-07-14T22:17:28.576Z,96.50
2018-07-14T22:19:57.303Z,96.60
2018-07-14T22:22:26.004Z,96.80
2018-07-14T22:24:54.737Z,97.30
2018-07-14T22:27:23.345Z,97.10
2018-07-14T22:29:52.053Z,97.30
2018-07-14T22:32:20.798Z,97.60
2018-07-14T22:34:49.502Z,97.80
2018-07-14T22:37:18.146Z,97.90
2018-07-14T22:39:46.822Z,98.10
2018-07-14T22:42:15.634Z,98.30
2018-07-14T22:44:44.360Z,98.40
2018-07-14T22:47:13.100Z,98.50
2018-07-14T22:49:41.829Z,98.70
2018-07-14T22:52:10.531Z,98.90
2018-07-14T22:54:39.204Z,99.10
2018-07-14T22:57:07.885Z,99.20
2018-07-14T23:02:05.345Z,99.60
2018-07-14T23:04:34.009Z,99.70
2018-07-14T23:07:02.776Z,99.80
2018-07-14T23:09:31.433Z,99.90
2018-07-14T23:14:28.432Z,99.90
2018-07-14T23:16:57.147Z,99.90
2018-07-14T23:19:25.768Z,99.90
2018-07-14T23:21:54.427Z,99.90
2018-07-14T23:24:23.154Z,99.90
2018-07-14T23:26:51.804Z,99.90
2018-07-14T23:29:20.496Z,99.90
2018-07-14T23:31:49.154Z,99.90
2018-07-14T23:34:17.806Z,99.90
2018-07-14T23:36:46.459Z,99.90
2018-07-14T23:39:15.191Z,99.90
2018-07-14T23:41:43.988Z,99.90
2018-07-14T23:46:41.054Z,99.90
2018-07-14T23:49:09.763Z,99.90
2018-07-14T23:51:38.451Z,99.90
2018-07-14T23:54:07.108Z,99.90
2018-07-14T23:56:35.741Z,99.90
2018-07-14T23:59:04.433Z,99.90
